sensor_id;sensor_type;location;lat;lon;timestamp;P1;durP1;ratioP1;P2;durP2;ratioP2
71763;SDS011;59602;52.142;5.408;2023-07-30T00:17:36;3.43;;;0.37;;
71763;SDS011;59602;52.142;5.408;2023-07-30T00:23:31;2.92;;;0.50;;
71763;SDS011;59602;52.142;5.408;2023-07-30T00:34:04;4.57;;;0.50;;
71763;SDS011;59602;52.142;5.408;2023-07-30T00:44:32;4.63;;;0.65;;
71763;SDS011;59602;52.142;5.408;2023-07-30T00:47:46;7.32;;;0.60;;
71763;SDS011;59602;52.142;5.408;2023-07-30T00:50:14;5.53;;;0.50;;
71763;SDS011;59602;52.142;5.408;2023-07-30T00:53:19;7.07;;;0.60;;
71763;SDS011;59602;52.142;5.408;2023-07-30T00:56:23;2.08;;;0.40;;
71763;SDS011;59602;52.142;5.408;2023-07-30T00:59:29;3.95;;;0.80;;
71763;SDS011;59602;52.142;5.408;2023-07-30T01:05:44;5.20;;;0.50;;
71763;SDS011;59602;52.142;5.408;2023-07-30T01:09:04;4.43;;;0.70;;
71763;SDS011;59602;52.142;5.408;2023-07-30T01:15:43;4.43;;;0.50;;
71763;SDS011;59602;52.142;5.408;2023-07-30T01:18:30;4.10;;;0.70;;
71763;SDS011;59602;52.142;5.408;2023-07-30T01:21:23;3.83;;;0.60;;
71763;SDS011;59602;52.142;5.408;2023-07-30T01:27:11;4.68;;;0.63;;
71763;SDS011;59602;52.142;5.408;2023-07-30T01:30:08;4.80;;;0.50;;
71763;SDS011;59602;52.142;5.408;2023-07-30T01:34:17;8.35;;;0.60;;
71763;SDS011;59602;52.142;5.408;2023-07-30T01:36:55;6.33;;;0.50;;
71763;SDS011;59602;52.142;5.408;2023-07-30T01:39:26;4.38;;;0.50;;
71763;SDS011;59602;52.142;5.408;2023-07-30T01:42:14;5.25;;;0.70;;
71763;SDS011;59602;52.142;5.408;2023-07-30T01:44:47;4.97;;;0.75;;
71763;SDS011;59602;52.142;5.408;2023-07-30T01:47:37;5.60;;;0.80;;
71763;SDS011;59602;52.142;5.408;2023-07-30T01:50:07;10.10;;;1.00;;
71763;SDS011;59602;52.142;5.408;2023-07-30T01:53:37;4.03;;;0.70;;
71763;SDS011;59602;52.142;5.408;2023-07-30T01:55:46;5.55;;;1.00;;
71763;SDS011;59602;52.142;5.408;2023-07-30T01:58:13;4.43;;;0.70;;
71763;SDS011;59602;52.142;5.408;2023-07-30T02:00:42;5.22;;;0.70;;
71763;SDS011;59602;52.142;5.408;2023-07-30T02:06:14;5.00;;;0.90;;
71763;SDS011;59602;52.142;5.408;2023-07-30T02:09:43;4.28;;;0.93;;
71763;SDS011;59602;52.142;5.408;2023-07-30T02:12:41;3.30;;;0.57;;
71763;SDS011;59602;52.142;5.408;2023-07-30T02:15:34;5.88;;;0.85;;
71763;SDS011;59602;52.142;5.408;2023-07-30T02:18:56;5.13;;;0.60;;
71763;SDS011;59602;52.142;5.408;2023-07-30T02:22:00;5.95;;;0.70;;
71763;SDS011;59602;52.142;5.408;2023-07-30T02:24:27;6.40;;;0.77;;
71763;SDS011;59602;52.142;5.408;2023-07-30T02:30:29;7.30;;;0.68;;
71763;SDS011;59602;52.142;5.408;2023-07-30T02:34:02;8.27;;;0.77;;
71763;SDS011;59602;52.142;5.408;2023-07-30T02:37:11;8.15;;;0.95;;
71763;SDS011;59602;52.142;5.408;2023-07-30T02:40:05;6.68;;;0.85;;
71763;SDS011;59602;52.142;5.408;2023-07-30T02:43:31;8.05;;;0.80;;
71763;SDS011;59602;52.142;5.408;2023-07-30T02:46:04;7.95;;;1.40;;
71763;SDS011;59602;52.142;5.408;2023-07-30T02:48:30;9.87;;;1.13;;
71763;SDS011;59602;52.142;5.408;2023-07-30T02:51:00;8.02;;;1.13;;
71763;SDS011;59602;52.142;5.408;2023-07-30T02:56:58;7.32;;;0.98;;
71763;SDS011;59602;52.142;5.408;2023-07-30T03:06:19;8.50;;;1.10;;
71763;SDS011;59602;52.142;5.408;2023-07-30T03:09:11;7.88;;;1.00;;
71763;SDS011;59602;52.142;5.408;2023-07-30T03:12:36;8.57;;;0.98;;
71763;SDS011;59602;52.142;5.408;2023-07-30T03:15:02;4.50;;;0.70;;
71763;SDS011;59602;52.142;5.408;2023-07-30T03:17:32;10.73;;;1.07;;
71763;SDS011;59602;52.142;5.408;2023-07-30T03:23:59;10.00;;;1.52;;
71763;SDS011;59602;52.142;5.408;2023-07-30T03:26:26;9.48;;;1.35;;
71763;SDS011;59602;52.142;5.408;2023-07-30T03:31:47;9.63;;;1.50;;
71763;SDS011;59602;52.142;5.408;2023-07-30T03:34:37;6.68;;;1.20;;
71763;SDS011;59602;52.142;5.408;2023-07-30T03:37:30;7.97;;;1.00;;
71763;SDS011;59602;52.142;5.408;2023-07-30T03:40:13;7.75;;;1.40;;
71763;SDS011;59602;52.142;5.408;2023-07-30T03:42:53;14.00;;;1.38;;
71763;SDS011;59602;52.142;5.408;2023-07-30T03:45:59;14.57;;;1.70;;
71763;SDS011;59602;52.142;5.408;2023-07-30T03:48:28;8.55;;;1.60;;
71763;SDS011;59602;52.142;5.408;2023-07-30T03:54:34;7.53;;;1.50;;
71763;SDS011;59602;52.142;5.408;2023-07-30T04:01:12;6.73;;;1.23;;
71763;SDS011;59602;52.142;5.408;2023-07-30T04:08:02;12.00;;;2.60;;
71763;SDS011;59602;52.142;5.408;2023-07-30T04:11:21;12.27;;;1.50;;
71763;SDS011;59602;52.142;5.408;2023-07-30T04:29:12;8.85;;;1.45;;
71763;SDS011;59602;52.142;5.408;2023-07-30T04:32:42;10.45;;;1.90;;
71763;SDS011;59602;52.142;5.408;2023-07-30T04:39:10;13.80;;;1.95;;
71763;SDS011;59602;52.142;5.408;2023-07-30T04:48:33;12.50;;;2.13;;
71763;SDS011;59602;52.142;5.408;2023-07-30T04:54:41;11.48;;;2.38;;
71763;SDS011;59602;52.142;5.408;2023-07-30T05:07:28;13.73;;;1.97;;
71763;SDS011;59602;52.142;5.408;2023-07-30T05:17:55;11.75;;;1.90;;
71763;SDS011;59602;52.142;5.408;2023-07-30T05:20:46;12.13;;;2.55;;
71763;SDS011;59602;52.142;5.408;2023-07-30T05:39:59;13.15;;;2.80;;
71763;SDS011;59602;52.142;5.408;2023-07-30T05:42:29;14.73;;;3.20;;
71763;SDS011;59602;52.142;5.408;2023-07-30T05:50:19;13.05;;;3.03;;
71763;SDS011;59602;52.142;5.408;2023-07-30T06:00:44;13.80;;;3.57;;
71763;SDS011;59602;52.142;5.408;2023-07-30T06:04:33;14.93;;;3.63;;
71763;SDS011;59602;52.142;5.408;2023-07-30T06:07:26;17.60;;;3.67;;
71763;SDS011;59602;52.142;5.408;2023-07-30T06:10:43;13.75;;;3.78;;
71763;SDS011;59602;52.142;5.408;2023-07-30T06:13:34;10.57;;;3.00;;
71763;SDS011;59602;52.142;5.408;2023-07-30T06:20:02;15.43;;;4.25;;
71763;SDS011;59602;52.142;5.408;2023-07-30T06:22:31;12.40;;;4.00;;
71763;SDS011;59602;52.142;5.408;2023-07-30T06:25:16;9.85;;;3.63;;
71763;SDS011;59602;52.142;5.408;2023-07-30T06:28:25;19.95;;;4.10;;
71763;SDS011;59602;52.142;5.408;2023-07-30T06:30:59;15.07;;;4.47;;
71763;SDS011;59602;52.142;5.408;2023-07-30T06:33:45;15.63;;;4.50;;
71763;SDS011;59602;52.142;5.408;2023-07-30T06:36:57;12.65;;;4.40;;
71763;SDS011;59602;52.142;5.408;2023-07-30T06:46:44;16.23;;;4.43;;
71763;SDS011;59602;52.142;5.408;2023-07-30T06:49:14;13.20;;;4.65;;
71763;SDS011;59602;52.142;5.408;2023-07-30T06:51:47;10.07;;;4.75;;
71763;SDS011;59602;52.142;5.408;2023-07-30T06:55:05;16.08;;;3.88;;
71763;SDS011;59602;52.142;5.408;2023-07-30T06:59:01;15.52;;;3.63;;
71763;SDS011;59602;52.142;5.408;2023-07-30T07:01:19;14.83;;;4.00;;
71763;SDS011;59602;52.142;5.408;2023-07-30T07:03:49;13.57;;;3.42;;
71763;SDS011;59602;52.142;5.408;2023-07-30T07:06:33;15.35;;;3.65;;
71763;SDS011;59602;52.142;5.408;2023-07-30T07:09:16;12.90;;;3.70;;
71763;SDS011;59602;52.142;5.408;2023-07-30T07:12:33;13.27;;;3.40;;
71763;SDS011;59602;52.142;5.408;2023-07-30T07:15:26;9.50;;;3.20;;
71763;SDS011;59602;52.142;5.408;2023-07-30T07:18:40;15.52;;;4.07;;
71763;SDS011;59602;52.142;5.408;2023-07-30T07:21:09;11.95;;;3.38;;
71763;SDS011;59602;52.142;5.408;2023-07-30T07:23:36;12.18;;;2.97;;
71763;SDS011;59602;52.142;5.408;2023-07-30T07:26:08;14.00;;;3.10;;
71763;SDS011;59602;52.142;5.408;2023-07-30T07:28:50;13.70;;;3.33;;
71763;SDS011;59602;52.142;5.408;2023-07-30T07:31:18;14.45;;;3.30;;
71763;SDS011;59602;52.142;5.408;2023-07-30T07:33:44;9.93;;;2.47;;
71763;SDS011;59602;52.142;5.408;2023-07-30T07:36:11;15.27;;;3.00;;
71763;SDS011;59602;52.142;5.408;2023-07-30T07:38:40;10.38;;;2.47;;
71763;SDS011;59602;52.142;5.408;2023-07-30T07:41:07;11.93;;;1.93;;
71763;SDS011;59602;52.142;5.408;2023-07-30T07:43:57;13.50;;;2.35;;
71763;SDS011;59602;52.142;5.408;2023-07-30T07:46:24;8.65;;;2.05;;
71763;SDS011;59602;52.142;5.408;2023-07-30T07:48:52;12.30;;;2.20;;
71763;SDS011;59602;52.142;5.408;2023-07-30T07:51:19;11.65;;;2.22;;
71763;SDS011;59602;52.142;5.408;2023-07-30T08:00:02;8.90;;;1.80;;
71763;SDS011;59602;52.142;5.408;2023-07-30T08:27:57;8.25;;;1.85;;
71763;SDS011;59602;52.142;5.408;2023-07-30T08:30:34;9.85;;;2.03;;
71763;SDS011;59602;52.142;5.408;2023-07-30T08:33:05;10.90;;;2.07;;
71763;SDS011;59602;52.142;5.408;2023-07-30T08:35:32;13.07;;;2.22;;
71763;SDS011;59602;52.142;5.408;2023-07-30T08:37:58;10.90;;;2.53;;
71763;SDS011;59602;52.142;5.408;2023-07-30T08:40:25;6.03;;;1.60;;
71763;SDS011;59602;52.142;5.408;2023-07-30T08:42:52;11.13;;;2.08;;
71763;SDS011;59602;52.142;5.408;2023-07-30T08:45:19;9.20;;;2.00;;
71763;SDS011;59602;52.142;5.408;2023-07-30T08:47:46;9.57;;;2.00;;
71763;SDS011;59602;52.142;5.408;2023-07-30T08:50:17;9.95;;;1.80;;
71763;SDS011;59602;52.142;5.408;2023-07-30T08:53:00;10.43;;;1.55;;
71763;SDS011;59602;52.142;5.408;2023-07-30T08:55:39;8.25;;;1.67;;
71763;SDS011;59602;52.142;5.408;2023-07-30T09:01:08;4.47;;;0.77;;
71763;SDS011;59602;52.142;5.408;2023-07-30T09:03:37;12.82;;;1.63;;
71763;SDS011;59602;52.142;5.408;2023-07-30T09:06:07;9.70;;;1.30;;
71763;SDS011;59602;52.142;5.408;2023-07-30T09:08:34;7.53;;;1.20;;
71763;SDS011;59602;52.142;5.408;2023-07-30T09:11:08;7.40;;;1.40;;
71763;SDS011;59602;52.142;5.408;2023-07-30T09:13:39;8.50;;;1.50;;
71763;SDS011;59602;52.142;5.408;2023-07-30T09:16:08;7.05;;;1.05;;
71763;SDS011;59602;52.142;5.408;2023-07-30T09:18:39;6.93;;;1.52;;
71763;SDS011;59602;52.142;5.408;2023-07-30T09:21:06;8.18;;;1.58;;
71763;SDS011;59602;52.142;5.408;2023-07-30T09:23:39;10.77;;;1.77;;
71763;SDS011;59602;52.142;5.408;2023-07-30T09:26:11;9.35;;;1.77;;
71763;SDS011;59602;52.142;5.408;2023-07-30T09:29:32;10.75;;;1.75;;
71763;SDS011;59602;52.142;5.408;2023-07-30T09:32:02;8.23;;;1.30;;
71763;SDS011;59602;52.142;5.408;2023-07-30T09:38:00;7.90;;;1.20;;
71763;SDS011;59602;52.142;5.408;2023-07-30T09:40:52;8.57;;;1.42;;
71763;SDS011;59602;52.142;5.408;2023-07-30T09:43:47;3.95;;;0.95;;
71763;SDS011;59602;52.142;5.408;2023-07-30T09:46:15;5.80;;;1.20;;
71763;SDS011;59602;52.142;5.408;2023-07-30T09:48:41;8.15;;;0.80;;
71763;SDS011;59602;52.142;5.408;2023-07-30T09:51:08;4.93;;;0.90;;
71763;SDS011;59602;52.142;5.408;2023-07-30T09:53:35;8.80;;;1.08;;
71763;SDS011;59602;52.142;5.408;2023-07-30T09:56:02;5.03;;;0.98;;
71763;SDS011;59602;52.142;5.408;2023-07-30T09:58:30;6.72;;;1.23;;
71763;SDS011;59602;52.142;5.408;2023-07-30T10:00:58;6.80;;;0.80;;
71763;SDS011;59602;52.142;5.408;2023-07-30T10:03:26;5.67;;;1.23;;
71763;SDS011;59602;52.142;5.408;2023-07-30T10:05:55;7.10;;;0.85;;
71763;SDS011;59602;52.142;5.408;2023-07-30T10:08:29;6.13;;;0.90;;
71763;SDS011;59602;52.142;5.408;2023-07-30T10:11:00;6.93;;;0.70;;
71763;SDS011;59602;52.142;5.408;2023-07-30T10:13:33;6.78;;;0.63;;
71763;SDS011;59602;52.142;5.408;2023-07-30T10:16:01;4.10;;;0.47;;
71763;SDS011;59602;52.142;5.408;2023-07-30T10:18:38;2.92;;;0.50;;
71763;SDS011;59602;52.142;5.408;2023-07-30T10:21:07;3.80;;;0.50;;
71763;SDS011;59602;52.142;5.408;2023-07-30T10:23:36;4.75;;;0.50;;
71763;SDS011;59602;52.142;5.408;2023-07-30T10:40:33;5.57;;;0.40;;
71763;SDS011;59602;52.142;5.408;2023-07-30T10:45:51;6.07;;;0.50;;
71763;SDS011;59602;52.142;5.408;2023-07-30T10:48:58;4.50;;;0.60;;
71763;SDS011;59602;52.142;5.408;2023-07-30T10:51:43;4.80;;;0.50;;
71763;SDS011;59602;52.142;5.408;2023-07-30T10:54:36;4.57;;;0.90;;
71763;SDS011;59602;52.142;5.408;2023-07-30T10:57:50;3.55;;;0.40;;
71763;SDS011;59602;52.142;5.408;2023-07-30T11:00:45;6.93;;;0.63;;
71763;SDS011;59602;52.142;5.408;2023-07-30T11:03:52;5.35;;;0.40;;
71763;SDS011;59602;52.142;5.408;2023-07-30T11:06:34;4.25;;;0.38;;
71763;SDS011;59602;52.142;5.408;2023-07-30T11:09:43;7.03;;;0.55;;
71763;SDS011;59602;52.142;5.408;2023-07-30T11:13:02;3.40;;;0.40;;
71763;SDS011;59602;52.142;5.408;2023-07-30T11:15:54;3.90;;;0.30;;
71763;SDS011;59602;52.142;5.408;2023-07-30T11:18:24;4.03;;;0.30;;
71763;SDS011;59602;52.142;5.408;2023-07-30T11:21:08;3.38;;;0.38;;
71763;SDS011;59602;52.142;5.408;2023-07-30T11:23:57;3.42;;;0.40;;
71763;SDS011;59602;52.142;5.408;2023-07-30T11:26:41;2.17;;;0.40;;
71763;SDS011;59602;52.142;5.408;2023-07-30T11:29:37;3.83;;;0.43;;
71763;SDS011;59602;52.142;5.408;2023-07-30T11:32:08;2.45;;;0.50;;
71763;SDS011;59602;52.142;5.408;2023-07-30T11:37:54;3.38;;;0.40;;
71763;SDS011;59602;52.142;5.408;2023-07-30T11:40:30;3.72;;;0.40;;
71763;SDS011;59602;52.142;5.408;2023-07-30T11:43:21;2.53;;;0.30;;
71763;SDS011;59602;52.142;5.408;2023-07-30T11:46:24;1.70;;;0.50;;
71763;SDS011;59602;52.142;5.408;2023-07-30T11:49:28;4.47;;;0.50;;
71763;SDS011;59602;52.142;5.408;2023-07-30T11:59:41;2.33;;;0.30;;
71763;SDS011;59602;52.142;5.408;2023-07-30T12:02:33;5.45;;;0.40;;
71763;SDS011;59602;52.142;5.408;2023-07-30T12:05:31;7.72;;;0.50;;
71763;SDS011;59602;52.142;5.408;2023-07-30T12:08:59;3.80;;;0.30;;
71763;SDS011;59602;52.142;5.408;2023-07-30T12:11:57;2.72;;;0.40;;
71763;SDS011;59602;52.142;5.408;2023-07-30T12:17:18;3.13;;;0.32;;
71763;SDS011;59602;52.142;5.408;2023-07-30T12:20:01;2.45;;;0.32;;
71763;SDS011;59602;52.142;5.408;2023-07-30T12:22:36;6.93;;;0.50;;
71763;SDS011;59602;52.142;5.408;2023-07-30T12:32:18;3.67;;;0.73;;
71763;SDS011;59602;52.142;5.408;2023-07-30T12:34:59;2.08;;;0.25;;
71763;SDS011;59602;52.142;5.408;2023-07-30T12:37:47;3.80;;;0.63;;
71763;SDS011;59602;52.142;5.408;2023-07-30T12:40:32;4.90;;;0.30;;
71763;SDS011;59602;52.142;5.408;2023-07-30T12:46:50;2.65;;;0.30;;
71763;SDS011;59602;52.142;5.408;2023-07-30T12:53:38;2.35;;;0.30;;
71763;SDS011;59602;52.142;5.408;2023-07-30T12:56:54;2.63;;;0.30;;
71763;SDS011;59602;52.142;5.408;2023-07-30T12:59:56;4.17;;;0.37;;
71763;SDS011;59602;52.142;5.408;2023-07-30T13:02:33;4.45;;;0.50;;
71763;SDS011;59602;52.142;5.408;2023-07-30T13:05:36;3.60;;;0.50;;
71763;SDS011;59602;52.142;5.408;2023-07-30T13:08:30;3.15;;;0.30;;
71763;SDS011;59602;52.142;5.408;2023-07-30T13:11:11;3.00;;;0.30;;
71763;SDS011;59602;52.142;5.408;2023-07-30T13:13:55;3.73;;;0.33;;
71763;SDS011;59602;52.142;5.408;2023-07-30T13:16:41;3.60;;;0.82;;
71763;SDS011;59602;52.142;5.408;2023-07-30T13:19:27;4.20;;;0.57;;
71763;SDS011;59602;52.142;5.408;2023-07-30T13:21:57;3.58;;;0.30;;
71763;SDS011;59602;52.142;5.408;2023-07-30T13:27:48;1.57;;;0.37;;
71763;SDS011;59602;52.142;5.408;2023-07-30T13:30:39;3.03;;;0.40;;
71763;SDS011;59602;52.142;5.408;2023-07-30T13:34:05;3.55;;;0.38;;
71763;SDS011;59602;52.142;5.408;2023-07-30T13:36:37;2.90;;;0.20;;
71763;SDS011;59602;52.142;5.408;2023-07-30T13:39:18;5.53;;;0.30;;
71763;SDS011;59602;52.142;5.408;2023-07-30T13:42:24;2.93;;;0.40;;
71763;SDS011;59602;52.142;5.408;2023-07-30T13:48:10;3.03;;;0.50;;
71763;SDS011;59602;52.142;5.408;2023-07-30T13:55:11;3.13;;;0.32;;
71763;SDS011;59602;52.142;5.408;2023-07-30T14:00:44;4.20;;;0.30;;
71763;SDS011;59602;52.142;5.408;2023-07-30T14:03:11;4.97;;;0.30;;
71763;SDS011;59602;52.142;5.408;2023-07-30T14:06:12;2.65;;;0.40;;
71763;SDS011;59602;52.142;5.408;2023-07-30T14:08:53;16.10;;;0.90;;
71763;SDS011;59602;52.142;5.408;2023-07-30T14:17:51;2.53;;;0.80;;
71763;SDS011;59602;52.142;5.408;2023-07-30T14:23:17;4.13;;;0.47;;
71763;SDS011;59602;52.142;5.408;2023-07-30T14:25:58;6.87;;;0.40;;
71763;SDS011;59602;52.142;5.408;2023-07-30T14:28:56;2.92;;;0.30;;
71763;SDS011;59602;52.142;5.408;2023-07-30T14:45:29;3.35;;;0.30;;
71763;SDS011;59602;52.142;5.408;2023-07-30T14:48:53;4.57;;;0.38;;
71763;SDS011;59602;52.142;5.408;2023-07-30T15:02:50;7.07;;;0.50;;
71763;SDS011;59602;52.142;5.408;2023-07-30T15:26:18;4.78;;;0.60;;
71763;SDS011;59602;52.142;5.408;2023-07-30T15:29:16;4.90;;;0.63;;
71763;SDS011;59602;52.142;5.408;2023-07-30T15:37:08;4.68;;;0.65;;
71763;SDS011;59602;52.142;5.408;2023-07-30T15:45:34;4.15;;;0.60;;
71763;SDS011;59602;52.142;5.408;2023-07-30T16:16:23;4.65;;;0.55;;
71763;SDS011;59602;52.142;5.408;2023-07-30T16:18:54;4.47;;;0.80;;
71763;SDS011;59602;52.142;5.408;2023-07-30T16:21:44;5.40;;;0.70;;
71763;SDS011;59602;52.142;5.408;2023-07-30T16:28:13;9.70;;;1.20;;
71763;SDS011;59602;52.142;5.408;2023-07-30T16:34:29;5.28;;;0.68;;
71763;SDS011;59602;52.142;5.408;2023-07-30T16:56:09;6.45;;;0.80;;
71763;SDS011;59602;52.142;5.408;2023-07-30T16:58:40;5.03;;;0.50;;
71763;SDS011;59602;52.142;5.408;2023-07-30T17:01:54;7.13;;;1.38;;
71763;SDS011;59602;52.142;5.408;2023-07-30T17:04:42;6.60;;;1.40;;
71763;SDS011;59602;52.142;5.408;2023-07-30T17:07:51;6.88;;;1.23;;
71763;SDS011;59602;52.142;5.408;2023-07-30T17:14:21;12.37;;;1.90;;
71763;SDS011;59602;52.142;5.408;2023-07-30T18:19:24;3.65;;;0.50;;
71763;SDS011;59602;52.142;5.408;2023-07-30T18:22:05;2.38;;;0.43;;
71763;SDS011;59602;52.142;5.408;2023-07-30T18:25:26;2.45;;;0.47;;
71763;SDS011;59602;52.142;5.408;2023-07-30T18:31:39;3.40;;;0.40;;
71763;SDS011;59602;52.142;5.408;2023-07-30T18:34:34;3.45;;;0.80;;
71763;SDS011;59602;52.142;5.408;2023-07-30T18:37:38;5.35;;;0.60;;
71763;SDS011;59602;52.142;5.408;2023-07-30T18:43:53;2.67;;;0.47;;
71763;SDS011;59602;52.142;5.408;2023-07-30T18:46:20;2.03;;;0.50;;
71763;SDS011;59602;52.142;5.408;2023-07-30T18:48:55;2.05;;;0.43;;
71763;SDS011;59602;52.142;5.408;2023-07-30T18:51:22;3.75;;;0.40;;
71763;SDS011;59602;52.142;5.408;2023-07-30T19:03:45;2.88;;;1.20;;
71763;SDS011;59602;52.142;5.408;2023-07-30T19:07:10;2.95;;;0.80;;
71763;SDS011;59602;52.142;5.408;2023-07-30T19:18:35;3.55;;;0.77;;
71763;SDS011;59602;52.142;5.408;2023-07-30T19:29:22;3.37;;;1.20;;
71763;SDS011;59602;52.142;5.408;2023-07-30T19:55:06;4.45;;;1.20;;
71763;SDS011;59602;52.142;5.408;2023-07-30T20:06:36;2.33;;;1.23;;
71763;SDS011;59602;52.142;5.408;2023-07-30T20:13:20;3.47;;;1.40;;
71763;SDS011;59602;52.142;5.408;2023-07-30T20:16:10;3.67;;;1.38;;
71763;SDS011;59602;52.142;5.408;2023-07-30T20:19:24;3.70;;;0.80;;
71763;SDS011;59602;52.142;5.408;2023-07-30T20:25:21;3.20;;;0.88;;
71763;SDS011;59602;52.142;5.408;2023-07-30T20:44:09;4.50;;;0.70;;
71763;SDS011;59602;52.142;5.408;2023-07-30T20:50:00;1.48;;;0.43;;
71763;SDS011;59602;52.142;5.408;2023-07-30T20:59:56;2.22;;;0.50;;
71763;SDS011;59602;52.142;5.408;2023-07-30T21:14:32;2.20;;;0.50;;
71763;SDS011;59602;52.142;5.408;2023-07-30T21:24:12;1.63;;;0.30;;
71763;SDS011;59602;52.142;5.408;2023-07-30T21:27:16;2.17;;;0.40;;
71763;SDS011;59602;52.142;5.408;2023-07-30T21:32:57;3.22;;;0.30;;
71763;SDS011;59602;52.142;5.408;2023-07-30T21:36:08;2.10;;;0.40;;
71763;SDS011;59602;52.142;5.408;2023-07-30T21:38:45;1.75;;;0.30;;
71763;SDS011;59602;52.142;5.408;2023-07-30T21:41:13;2.17;;;0.43;;
71763;SDS011;59602;52.142;5.408;2023-07-30T21:43:40;1.52;;;0.30;;
71763;SDS011;59602;52.142;5.408;2023-07-30T21:46:10;2.60;;;0.40;;
71763;SDS011;59602;52.142;5.408;2023-07-30T21:48:42;3.90;;;0.68;;
71763;SDS011;59602;52.142;5.408;2023-07-30T21:51:11;1.13;;;0.30;;
71763;SDS011;59602;52.142;5.408;2023-07-30T21:53:39;1.30;;;0.60;;
71763;SDS011;59602;52.142;5.408;2023-07-30T21:56:09;1.35;;;0.20;;
71763;SDS011;59602;52.142;5.408;2023-07-30T21:58:35;3.10;;;0.30;;
71763;SDS011;59602;52.142;5.408;2023-07-30T22:01:02;2.22;;;0.40;;
71763;SDS011;59602;52.142;5.408;2023-07-30T22:03:32;1.92;;;0.30;;
71763;SDS011;59602;52.142;5.408;2023-07-30T22:05:59;1.67;;;0.30;;
71763;SDS011;59602;52.142;5.408;2023-07-30T22:08:26;2.05;;;0.30;;
71763;SDS011;59602;52.142;5.408;2023-07-30T22:10:54;2.05;;;0.30;;
71763;SDS011;59602;52.142;5.408;2023-07-30T22:13:35;2.30;;;0.40;;
71763;SDS011;59602;52.142;5.408;2023-07-30T22:16:02;1.95;;;0.30;;
71763;SDS011;59602;52.142;5.408;2023-07-30T22:18:33;2.00;;;0.40;;
71763;SDS011;59602;52.142;5.408;2023-07-30T22:21:20;2.40;;;0.70;;
71763;SDS011;59602;52.142;5.408;2023-07-30T22:23:47;2.15;;;0.28;;
71763;SDS011;59602;52.142;5.408;2023-07-30T22:26:24;2.13;;;0.30;;
71763;SDS011;59602;52.142;5.408;2023-07-30T22:29:07;2.40;;;0.40;;
71763;SDS011;59602;52.142;5.408;2023-07-30T22:31:35;2.80;;;0.40;;
71763;SDS011;59602;52.142;5.408;2023-07-30T22:34:04;1.25;;;0.30;;
71763;SDS011;59602;52.142;5.408;2023-07-30T22:36:31;2.13;;;0.47;;
71763;SDS011;59602;52.142;5.408;2023-07-30T22:38:58;1.08;;;0.22;;
71763;SDS011;59602;52.142;5.408;2023-07-30T22:41:26;1.05;;;0.30;;
71763;SDS011;59602;52.142;5.408;2023-07-30T22:43:59;1.07;;;0.30;;
71763;SDS011;59602;52.142;5.408;2023-07-30T22:46:25;1.80;;;0.30;;
71763;SDS011;59602;52.142;5.408;2023-07-30T22:48:52;3.20;;;0.40;;
71763;SDS011;59602;52.142;5.408;2023-07-30T22:51:19;1.95;;;0.20;;
71763;SDS011;59602;52.142;5.408;2023-07-30T22:53:46;1.85;;;0.30;;
71763;SDS011;59602;52.142;5.408;2023-07-30T22:56:14;1.03;;;0.20;;
71763;SDS011;59602;52.142;5.408;2023-07-30T22:58:41;1.98;;;0.50;;
71763;SDS011;59602;52.142;5.408;2023-07-30T23:01:11;0.80;;;0.20;;
71763;SDS011;59602;52.142;5.408;2023-07-30T23:03:44;2.28;;;0.20;;
71763;SDS011;59602;52.142;5.408;2023-07-30T23:06:11;1.45;;;0.20;;
71763;SDS011;59602;52.142;5.408;2023-07-30T23:09:05;1.47;;;0.20;;
71763;SDS011;59602;52.142;5.408;2023-07-30T23:11:36;2.35;;;0.25;;
71763;SDS011;59602;52.142;5.408;2023-07-30T23:14:02;0.70;;;0.10;;
71763;SDS011;59602;52.142;5.408;2023-07-30T23:16:32;0.63;;;0.20;;
71763;SDS011;59602;52.142;5.408;2023-07-30T23:18:59;1.40;;;0.20;;
71763;SDS011;59602;52.142;5.408;2023-07-30T23:24:11;0.93;;;0.20;;
71763;SDS011;59602;52.142;5.408;2023-07-30T23:26:39;1.58;;;0.20;;
71763;SDS011;59602;52.142;5.408;2023-07-30T23:29:07;2.13;;;0.10;;
71763;SDS011;59602;52.142;5.408;2023-07-30T23:31:33;2.38;;;0.20;;
71763;SDS011;59602;52.142;5.408;2023-07-30T23:34:00;0.30;;;0.10;;
71763;SDS011;59602;52.142;5.408;2023-07-30T23:36:27;0.68;;;0.10;;
71763;SDS011;59602;52.142;5.408;2023-07-30T23:38:56;0.40;;;0.10;;
71763;SDS011;59602;52.142;5.408;2023-07-30T23:41:37;1.02;;;0.10;;
71763;SDS011;59602;52.142;5.408;2023-07-30T23:44:44;1.05;;;0.10;;
71763;SDS011;59602;52.142;5.408;2023-07-30T23:47:29;0.20;;;0.10;;
71763;SDS011;59602;52.142;5.408;2023-07-30T23:49:58;1.00;;;0.10;;
71763;SDS011;59602;52.142;5.408;2023-07-30T23:52:28;0.77;;;0.10;;
71763;SDS011;59602;52.142;5.408;2023-07-30T23:55:40;0.75;;;0.10;;
71763;SDS011;59602;52.142;5.408;2023-07-30T23:58:42;0.35;;;0.10;;
